createdAt,value
2023-01-08T00:00:01.513Z,9.05
2023-01-08T00:01:01.678Z,9.02
2023-01-08T00:02:01.715Z,9.00
2023-01-08T00:03:01.945Z,8.99
2023-01-08T00:04:02.089Z,8.99
2023-01-08T00:05:02.136Z,8.97
2023-01-08T00:06:02.278Z,8.96
2023-01-08T00:07:02.382Z,8.95
2023-01-08T00:08:02.521Z,8.96
2023-01-08T00:09:02.641Z,8.95
2023-01-08T00:10:02.818Z,8.95
2023-01-08T00:11:02.940Z,8.96
2023-01-08T00:12:03.074Z,8.95
2023-01-08T00:13:03.203Z,8.93
2023-01-08T00:14:03.332Z,8.90
2023-01-08T00:15:03.494Z,8.89
2023-01-08T00:16:03.639Z,8.87
2023-01-08T00:17:03.741Z,8.86
2023-01-08T00:18:05.947Z,8.84
2023-01-08T00:19:04.030Z,8.86
2023-01-08T00:20:04.160Z,8.86
2023-01-08T00:21:04.290Z,8.86
2023-01-08T00:22:04.423Z,8.84
2023-01-08T00:23:04.547Z,8.82
2023-01-08T00:24:04.664Z,8.81
2023-01-08T00:25:04.823Z,8.79
2023-01-08T00:26:04.952Z,8.78
2023-01-08T00:27:05.073Z,8.77
2023-01-08T00:28:05.204Z,8.75
2023-01-08T00:29:05.329Z,8.75
2023-01-08T00:30:05.495Z,8.77
2023-01-08T00:31:05.717Z,8.77
2023-01-08T00:32:05.789Z,8.77
2023-01-08T00:33:05.911Z,8.78
2023-01-08T00:34:06.043Z,8.75
2023-01-08T00:35:06.200Z,8.75
2023-01-08T00:36:06.359Z,8.74
2023-01-08T00:37:06.469Z,8.74
2023-01-08T00:38:06.607Z,8.71
2023-01-08T00:39:06.761Z,8.69
2023-01-08T00:40:06.866Z,8.69
2023-01-08T00:41:07.000Z,8.68
2023-01-08T00:42:07.135Z,8.68
2023-01-08T00:43:07.260Z,8.66
2023-01-08T00:44:07.381Z,8.63
2023-01-08T00:45:07.557Z,8.63
2023-01-08T00:46:07.713Z,8.60
2023-01-08T00:47:07.740Z,8.57
2023-01-08T00:48:07.876Z,8.59
2023-01-08T00:49:07.996Z,8.57
2023-01-08T00:50:08.161Z,8.54
2023-01-08T00:51:08.301Z,8.53
2023-01-08T00:52:08.414Z,8.49
2023-01-08T00:53:08.534Z,8.49
2023-01-08T00:54:08.664Z,8.49
2023-01-08T00:55:08.821Z,8.45
2023-01-08T00:56:08.954Z,8.44
2023-01-08T00:57:09.074Z,8.42
2023-01-08T00:58:09.215Z,8.41
2023-01-08T00:59:09.339Z,8.42
2023-01-08T01:00:09.489Z,8.41
2023-01-08T01:01:09.730Z,8.39
2023-01-08T01:02:09.813Z,8.38
2023-01-08T01:03:09.843Z,8.36
2023-01-08T01:04:10.017Z,8.34
2023-01-08T01:05:10.100Z,8.34
2023-01-08T01:06:10.228Z,8.32
2023-01-08T01:07:10.325Z,8.31
2023-01-08T01:08:10.463Z,8.28
2023-01-08T01:09:10.581Z,8.27
2023-01-08T01:10:10.735Z,8.26
2023-01-08T01:11:10.930Z,8.24
2023-01-08T01:12:10.962Z,8.24
2023-01-08T01:13:11.075Z,8.26
2023-01-08T01:14:11.205Z,8.26
2023-01-08T01:15:11.341Z,8.24
2023-01-08T01:16:11.489Z,8.21
2023-01-08T01:17:11.525Z,8.23
2023-01-08T01:18:11.672Z,8.23
2023-01-08T01:19:12.106Z,8.21
2023-01-08T01:20:11.904Z,8.20
2023-01-08T01:21:12.022Z,8.17
2023-01-08T01:22:12.148Z,8.16
2023-01-08T01:23:12.276Z,8.16
2023-01-08T01:24:12.434Z,8.16
2023-01-08T01:25:12.561Z,8.14
2023-01-08T01:26:12.721Z,8.14
2023-01-08T01:27:12.835Z,8.13
2023-01-08T01:28:12.978Z,8.16
2023-01-08T01:29:13.097Z,8.11
2023-01-08T01:30:13.241Z,8.09
2023-01-08T01:31:13.404Z,8.08
2023-01-08T01:32:13.536Z,8.09
2023-01-08T01:33:13.687Z,8.08
2023-01-08T01:34:13.810Z,8.08
2023-01-08T01:35:13.985Z,8.05
2023-01-08T01:36:14.069Z,8.06
2023-01-08T01:37:14.244Z,8.03
2023-01-08T01:38:14.363Z,8.02
2023-01-08T01:39:14.486Z,8.01
2023-01-08T01:40:14.636Z,7.98
2023-01-08T01:41:14.776Z,7.98
2023-01-08T01:42:14.895Z,7.96
2023-01-08T01:43:15.026Z,7.93
2023-01-08T01:44:15.146Z,7.93
2023-01-08T01:45:15.308Z,7.96
2023-01-08T01:46:15.460Z,7.95
2023-01-08T01:47:15.603Z,7.93
2023-01-08T01:48:15.748Z,7.91
2023-01-08T01:49:15.858Z,7.90
2023-01-08T01:50:16.004Z,7.90
2023-01-08T01:51:16.158Z,7.88
2023-01-08T01:52:16.283Z,7.90
2023-01-08T01:53:16.449Z,7.90
2023-01-08T01:54:16.514Z,7.87
2023-01-08T01:55:16.672Z,7.85
2023-01-08T01:56:16.803Z,7.84
2023-01-08T01:57:16.938Z,7.83
2023-01-08T01:58:17.065Z,7.81
2023-01-08T01:59:17.191Z,7.78
2023-01-08T02:00:17.353Z,7.74
2023-01-08T02:01:17.576Z,7.72
2023-01-08T02:02:17.742Z,7.74
2023-01-08T02:03:17.679Z,7.72
2023-01-08T02:04:17.825Z,7.70
2023-01-08T02:05:17.963Z,7.69
2023-01-08T02:06:18.111Z,7.69
2023-01-08T02:07:18.239Z,7.69
2023-01-08T02:08:18.368Z,7.67
2023-01-08T02:09:18.499Z,7.66
2023-01-08T02:10:18.645Z,7.66
2023-01-08T02:11:18.786Z,7.62
2023-01-08T02:12:18.917Z,7.61
2023-01-08T02:13:19.057Z,7.59
2023-01-08T02:14:19.189Z,7.56
2023-01-08T02:15:19.348Z,7.58
2023-01-08T02:16:19.538Z,7.55
2023-01-08T02:17:19.567Z,7.53
2023-01-08T02:18:19.710Z,7.51
2023-01-08T02:19:19.835Z,7.48
2023-01-08T02:20:19.980Z,7.48
2023-01-08T02:21:20.125Z,7.47
2023-01-08T02:22:20.264Z,7.47
2023-01-08T02:23:20.398Z,7.44
2023-01-08T02:24:20.521Z,7.46
2023-01-08T02:25:20.694Z,7.44
2023-01-08T02:26:20.835Z,7.41
2023-01-08T02:27:20.987Z,7.40
2023-01-08T02:28:21.106Z,7.39
2023-01-08T02:29:21.246Z,7.37
2023-01-08T02:30:21.397Z,7.37
2023-01-08T02:31:21.549Z,7.37
2023-01-08T02:32:21.684Z,7.40
2023-01-08T02:33:21.828Z,7.37
2023-01-08T02:34:21.965Z,7.33
2023-01-08T02:35:22.139Z,7.31
2023-01-08T02:36:22.276Z,7.29
2023-01-08T02:37:22.429Z,7.28
2023-01-08T02:38:22.546Z,7.28
2023-01-08T02:39:22.729Z,7.28
2023-01-08T02:40:22.874Z,7.28
2023-01-08T02:41:23.023Z,7.28
2023-01-08T02:42:23.168Z,7.26
2023-01-08T02:43:23.297Z,7.26
2023-01-08T02:44:23.439Z,7.28
2023-01-08T02:45:23.615Z,7.25
2023-01-08T02:46:23.783Z,7.28
2023-01-08T02:47:23.925Z,7.26
2023-01-08T02:48:24.042Z,7.25
2023-01-08T02:49:24.176Z,7.21
2023-01-08T02:50:24.366Z,7.21
2023-01-08T02:51:24.480Z,7.19
2023-01-08T02:52:24.600Z,7.18
2023-01-08T02:53:24.741Z,7.19
2023-01-08T02:54:24.904Z,7.18
2023-01-08T02:55:25.064Z,7.18
2023-01-08T02:56:25.206Z,7.18
2023-01-08T02:57:25.355Z,7.15
2023-01-08T02:58:25.526Z,7.15
2023-01-08T02:59:25.649Z,7.15
2023-01-08T03:00:25.793Z,7.15
2023-01-08T03:01:26.027Z,7.14
2023-01-08T03:02:26.275Z,7.14
2023-01-08T03:03:26.233Z,7.10
2023-01-08T03:04:26.435Z,7.10
2023-01-08T03:05:26.532Z,7.10
2023-01-08T03:06:26.644Z,7.10
2023-01-08T03:07:26.789Z,7.07
2023-01-08T03:08:26.931Z,7.04
2023-01-08T03:09:27.077Z,7.03
2023-01-08T03:10:27.236Z,7.03
2023-01-08T03:11:27.384Z,7.01
2023-01-08T03:12:27.523Z,7.00
2023-01-08T03:13:27.668Z,7.03
2023-01-08T03:14:27.795Z,7.03
2023-01-08T03:15:27.968Z,7.04
2023-01-08T03:16:28.157Z,7.04
2023-01-08T03:17:28.229Z,7.05
2023-01-08T03:18:28.370Z,7.04
2023-01-08T03:19:28.532Z,7.03
2023-01-08T03:20:28.701Z,7.04
2023-01-08T03:21:28.829Z,7.04
2023-01-08T03:22:28.972Z,7.04
2023-01-08T03:23:29.112Z,7.04
2023-01-08T03:24:29.262Z,7.05
2023-01-08T03:25:29.449Z,7.05
2023-01-08T03:26:29.578Z,7.04
2023-01-08T03:27:29.741Z,7.01
2023-01-08T03:28:29.866Z,7.00
2023-01-08T03:29:30.012Z,6.97
2023-01-08T03:30:30.263Z,6.96
2023-01-08T03:31:30.313Z,6.95
2023-01-08T03:32:30.477Z,6.96
2023-01-08T03:33:30.619Z,6.96
2023-01-08T03:34:30.761Z,6.95
2023-01-08T03:35:30.930Z,6.96
2023-01-08T03:36:31.066Z,6.93
2023-01-08T03:37:31.240Z,6.93
2023-01-08T03:38:31.377Z,6.92
2023-01-08T03:39:31.531Z,6.92
2023-01-08T03:40:31.691Z,6.92
2023-01-08T03:41:31.839Z,6.90
2023-01-08T03:42:31.982Z,6.92
2023-01-08T03:43:32.119Z,6.89
2023-01-08T03:44:32.262Z,6.86
2023-01-08T03:45:32.436Z,6.86
2023-01-08T03:46:39.582Z,6.85
2023-01-08T03:47:35.407Z,6.87
2023-01-08T03:48:32.879Z,6.87
2023-01-08T03:49:33.037Z,6.87
2023-01-08T03:50:33.212Z,6.89
2023-01-08T03:51:33.370Z,6.87
2023-01-08T03:52:33.520Z,6.87
2023-01-08T03:53:33.700Z,6.89
2023-01-08T03:54:33.899Z,6.89
2023-01-08T03:55:33.957Z,6.87
2023-01-08T03:56:34.114Z,6.89
2023-01-08T03:57:34.269Z,6.90
2023-01-08T03:58:34.399Z,6.87
2023-01-08T03:59:34.559Z,6.87
2023-01-08T04:00:34.729Z,6.86
2023-01-08T04:01:35.005Z,6.83
2023-01-08T04:02:35.103Z,6.82
2023-01-08T04:03:35.174Z,6.82
2023-01-08T04:04:35.366Z,6.83
2023-01-08T04:05:35.528Z,6.86
2023-01-08T04:06:35.702Z,6.85
2023-01-08T04:07:35.845Z,6.85
2023-01-08T04:08:35.998Z,6.83
2023-01-08T04:09:36.162Z,6.83
2023-01-08T04:10:36.302Z,6.83
2023-01-08T04:11:36.451Z,6.85
2023-01-08T04:12:36.664Z,6.83
2023-01-08T04:13:36.693Z,6.78
2023-01-08T04:14:36.845Z,6.78
2023-01-08T04:15:37.050Z,6.80
2023-01-08T04:16:37.100Z,6.78
2023-01-08T04:17:37.251Z,6.80
2023-01-08T04:18:37.411Z,6.80
2023-01-08T04:19:37.559Z,6.80
2023-01-08T04:20:37.733Z,6.80
2023-01-08T04:21:37.892Z,6.78
2023-01-08T04:22:38.024Z,6.80
2023-01-08T04:23:39.242Z,6.82
2023-01-08T04:24:38.276Z,6.85
2023-01-08T04:25:38.478Z,6.86
2023-01-08T04:26:38.507Z,6.87
2023-01-08T04:27:38.667Z,6.87
2023-01-08T04:28:38.811Z,6.89
2023-01-08T04:29:38.963Z,6.86
2023-01-08T04:30:39.176Z,6.83
2023-01-08T04:31:39.288Z,6.83
2023-01-08T04:32:39.361Z,6.82
2023-01-08T04:33:39.476Z,6.80
2023-01-08T04:34:39.583Z,6.80
2023-01-08T04:35:39.695Z,6.80
2023-01-08T04:36:39.784Z,6.80
2023-01-08T04:37:40.006Z,6.77
2023-01-08T04:38:40.140Z,6.75
2023-01-08T04:39:40.296Z,6.75
2023-01-08T04:40:40.454Z,6.74
2023-01-08T04:41:40.629Z,6.72
2023-01-08T04:42:40.765Z,6.74
2023-01-08T04:43:40.916Z,6.75
2023-01-08T04:44:41.070Z,6.75
2023-01-08T04:45:41.244Z,6.74
2023-01-08T04:46:41.475Z,6.77
2023-01-08T04:47:41.511Z,6.78
2023-01-08T04:48:41.638Z,6.75
2023-01-08T04:49:41.805Z,6.75
2023-01-08T04:50:41.957Z,6.75
2023-01-08T04:51:42.124Z,6.77
2023-01-08T04:52:42.276Z,6.77
2023-01-08T04:53:42.426Z,6.77
2023-01-08T04:54:42.562Z,6.75
2023-01-08T04:55:42.735Z,6.78
2023-01-08T04:56:42.879Z,6.78
2023-01-08T04:57:43.029Z,6.80
2023-01-08T04:58:43.179Z,6.80
2023-01-08T04:59:43.339Z,6.80
2023-01-08T05:00:43.547Z,6.80
2023-01-08T05:01:43.726Z,6.82
2023-01-08T05:02:44.026Z,6.83
2023-01-08T05:03:43.892Z,6.83
2023-01-08T05:04:43.983Z,6.83
2023-01-08T05:05:44.117Z,6.85
2023-01-08T05:06:44.220Z,6.85
2023-01-08T05:07:44.429Z,6.86
2023-01-08T05:08:44.577Z,6.86
2023-01-08T05:09:44.735Z,6.85
2023-01-08T05:10:44.907Z,6.87
2023-01-08T05:11:45.115Z,6.87
2023-01-08T05:12:45.261Z,6.87
2023-01-08T05:13:45.407Z,6.87
2023-01-08T05:14:45.555Z,6.89
2023-01-08T05:15:45.769Z,6.90
2023-01-08T05:16:45.905Z,6.90
2023-01-08T05:17:46.085Z,6.90
2023-01-08T05:18:46.235Z,6.90
2023-01-08T05:19:46.395Z,6.92
2023-01-08T05:20:46.557Z,6.95
2023-01-08T05:21:46.748Z,6.95
2023-01-08T05:22:46.894Z,6.96
2023-01-08T05:23:47.065Z,6.93
2023-01-08T05:24:47.217Z,6.96
2023-01-08T05:25:47.391Z,6.97
2023-01-08T05:26:47.548Z,6.97
2023-01-08T05:27:47.704Z,6.97
2023-01-08T05:28:47.865Z,7.00
2023-01-08T05:29:48.012Z,7.00
2023-01-08T05:30:48.183Z,7.03
2023-01-08T05:31:48.345Z,7.03
2023-01-08T05:32:48.503Z,7.04
2023-01-08T05:33:48.663Z,7.05
2023-01-08T05:34:48.827Z,7.07
2023-01-08T05:35:49.001Z,7.07
2023-01-08T05:36:49.159Z,7.07
2023-01-08T05:37:49.313Z,7.08
2023-01-08T05:38:49.489Z,7.08
2023-01-08T05:39:49.643Z,7.13
2023-01-08T05:40:49.803Z,7.15
2023-01-08T05:41:49.949Z,7.19
2023-01-08T05:42:50.111Z,7.22
2023-01-08T05:43:50.257Z,7.22
2023-01-08T05:44:50.390Z,7.25
2023-01-08T05:45:50.667Z,7.25
2023-01-08T05:46:50.624Z,7.29
2023-01-08T05:47:50.758Z,7.31
2023-01-08T05:48:50.928Z,7.33
2023-01-08T05:49:51.036Z,7.36
2023-01-08T05:50:51.191Z,7.39
2023-01-08T05:51:51.393Z,7.40
2023-01-08T05:52:51.428Z,7.43
2023-01-08T05:53:51.570Z,7.47
2023-01-08T05:54:51.736Z,7.50
2023-01-08T05:55:51.903Z,7.53
2023-01-08T05:56:52.037Z,7.53
2023-01-08T05:57:52.171Z,7.58
2023-01-08T05:58:52.318Z,7.59
2023-01-08T05:59:52.455Z,7.59
2023-01-08T06:00:52.607Z,7.61
2023-01-08T06:01:52.777Z,7.61
2023-01-08T06:02:52.935Z,7.67
2023-01-08T06:03:53.077Z,7.66
2023-01-08T06:04:53.232Z,7.69
2023-01-08T06:05:53.397Z,7.67
2023-01-08T06:06:53.562Z,7.69
2023-01-08T06:07:53.723Z,7.69
2023-01-08T06:08:53.865Z,7.70
2023-01-08T06:09:54.005Z,7.70
2023-01-08T06:10:54.167Z,7.72
2023-01-08T06:11:54.317Z,7.72
2023-01-08T06:12:54.464Z,7.72
2023-01-08T06:13:54.595Z,7.72
2023-01-08T06:14:54.752Z,7.74
2023-01-08T06:15:54.924Z,7.75
2023-01-08T06:16:55.067Z,7.77
2023-01-08T06:17:55.203Z,7.77
2023-01-08T06:18:55.332Z,7.77
2023-01-08T06:19:55.467Z,7.77
2023-01-08T06:20:55.634Z,7.77
2023-01-08T06:21:55.766Z,7.75
2023-01-08T06:22:55.912Z,7.74
2023-01-08T06:23:56.040Z,7.75
2023-01-08T06:24:56.191Z,7.78
2023-01-08T06:25:57.307Z,7.77
2023-01-08T06:26:56.451Z,7.78
2023-01-08T06:27:56.633Z,7.80
2023-01-08T06:28:56.759Z,7.81
2023-01-08T06:29:56.892Z,7.81
2023-01-08T06:30:57.093Z,7.83
2023-01-08T06:31:57.235Z,7.80
2023-01-08T06:32:57.392Z,7.81
2023-01-08T06:33:57.510Z,7.81
2023-01-08T06:34:57.664Z,7.83
2023-01-08T06:35:57.840Z,7.83
2023-01-08T06:36:58.023Z,7.83
2023-01-08T06:37:58.180Z,7.84
2023-01-08T06:38:58.344Z,7.87
2023-01-08T06:39:58.433Z,7.87
2023-01-08T06:40:58.603Z,7.85
2023-01-08T06:41:58.754Z,7.84
2023-01-08T06:42:58.924Z,7.84
2023-01-08T06:43:59.090Z,7.87
2023-01-08T06:44:59.287Z,7.87
2023-01-08T06:45:59.449Z,7.90
2023-01-08T06:46:59.600Z,7.88
2023-01-08T06:47:59.789Z,7.88
2023-01-08T06:48:59.943Z,7.88
2023-01-08T06:50:00.136Z,7.90
2023-01-08T06:51:00.321Z,7.90
2023-01-08T06:52:00.404Z,7.91
2023-01-08T06:53:00.795Z,7.90
2023-01-08T06:54:00.706Z,7.91
2023-01-08T06:55:00.896Z,7.91
2023-01-08T06:56:01.025Z,7.91
2023-01-08T06:57:01.174Z,7.95
2023-01-08T06:58:01.301Z,7.95
2023-01-08T06:59:01.444Z,7.96
2023-01-08T07:00:01.593Z,7.96
2023-01-08T07:01:01.755Z,7.99
2023-01-08T07:02:02.013Z,8.01
2023-01-08T07:03:02.178Z,8.02
2023-01-08T07:04:02.209Z,8.01
2023-01-08T07:05:02.409Z,8.01
2023-01-08T07:06:02.439Z,8.03
2023-01-08T07:07:02.579Z,8.05
2023-01-08T07:08:02.739Z,8.05
2023-01-08T07:09:02.857Z,8.06
2023-01-08T07:10:02.977Z,8.05
2023-01-08T07:11:03.136Z,8.05
2023-01-08T07:12:03.268Z,8.06
2023-01-08T07:13:03.444Z,8.05
2023-01-08T07:14:03.566Z,8.06
2023-01-08T07:15:03.719Z,8.08
2023-01-08T07:16:03.939Z,8.08
2023-01-08T07:17:03.976Z,8.09
2023-01-08T07:18:04.124Z,8.09
2023-01-08T07:19:04.296Z,8.13
2023-01-08T07:20:04.364Z,8.14
2023-01-08T07:21:04.542Z,8.17
2023-01-08T07:22:04.713Z,8.20
2023-01-08T07:23:04.845Z,8.21
2023-01-08T07:24:06.037Z,8.23
2023-01-08T07:25:05.185Z,8.24
2023-01-08T07:26:05.321Z,8.24
2023-01-08T07:27:05.454Z,8.26
2023-01-08T07:28:05.591Z,8.26
2023-01-08T07:29:05.735Z,8.26
2023-01-08T07:30:05.866Z,8.24
2023-01-08T07:31:06.057Z,8.23
2023-01-08T07:32:06.092Z,8.23
2023-01-08T07:33:06.237Z,8.21
2023-01-08T07:34:06.389Z,8.23
2023-01-08T07:35:06.519Z,8.20
2023-01-08T07:36:06.670Z,8.18
2023-01-08T07:37:06.778Z,8.18
2023-01-08T07:38:06.951Z,8.17
2023-01-08T07:39:07.078Z,8.14
2023-01-08T07:40:07.227Z,8.13
2023-01-08T07:41:07.388Z,8.09
2023-01-08T07:42:07.538Z,8.05
2023-01-08T07:43:07.687Z,8.09
2023-01-08T07:44:07.817Z,8.06
2023-01-08T07:45:08.026Z,8.05
2023-01-08T07:46:08.151Z,8.03
2023-01-08T07:47:08.219Z,8.05
2023-01-08T07:48:08.376Z,8.02
2023-01-08T07:49:08.532Z,8.01
2023-01-08T07:50:08.731Z,8.02
2023-01-08T07:51:09.010Z,8.03
2023-01-08T07:52:09.048Z,8.03
2023-01-08T07:53:09.195Z,8.05
2023-01-08T07:54:09.416Z,8.02
2023-01-08T07:55:09.528Z,8.01
2023-01-08T07:56:09.660Z,8.01
2023-01-08T07:57:09.717Z,8.01
2023-01-08T07:58:09.875Z,8.01
2023-01-08T07:59:10.043Z,8.01
2023-01-08T08:00:10.636Z,7.99
2023-01-08T08:01:10.457Z,8.02
2023-01-08T08:02:10.699Z,7.99
2023-01-08T08:03:10.925Z,8.01
2023-01-08T08:04:10.828Z,8.01
2023-01-08T08:05:10.990Z,7.99
2023-01-08T08:06:11.160Z,8.01
2023-01-08T08:07:11.324Z,8.02
2023-01-08T08:08:11.492Z,8.03
2023-01-08T08:09:11.675Z,8.03
2023-01-08T08:10:11.854Z,8.01
2023-01-08T08:11:12.024Z,8.01
2023-01-08T08:12:12.152Z,8.01
2023-01-08T08:13:12.368Z,8.01
2023-01-08T08:14:12.464Z,8.01
2023-01-08T08:15:12.524Z,8.02
2023-01-08T08:16:12.804Z,8.03
2023-01-08T08:17:12.875Z,8.03
2023-01-08T08:18:13.040Z,8.03
2023-01-08T08:19:13.213Z,8.02
2023-01-08T08:20:13.386Z,8.02
2023-01-08T08:21:13.608Z,8.01
2023-01-08T08:22:13.714Z,8.03
2023-01-08T08:23:13.766Z,8.03
2023-01-08T08:24:13.909Z,8.02
2023-01-08T08:25:14.069Z,8.01
2023-01-08T08:26:14.239Z,8.01
2023-01-08T08:27:14.407Z,8.03
2023-01-08T08:28:14.615Z,8.01
2023-01-08T08:29:14.679Z,8.02
2023-01-08T08:30:17.427Z,8.01
2023-01-08T08:31:15.070Z,8.01
2023-01-08T08:32:15.129Z,7.99
2023-01-08T08:33:15.314Z,8.02
2023-01-08T08:34:15.491Z,8.05
2023-01-08T08:35:15.658Z,8.05
2023-01-08T08:36:15.834Z,8.08
2023-01-08T08:37:16.141Z,8.06
2023-01-08T08:38:16.141Z,8.03
2023-01-08T08:39:16.303Z,8.06
2023-01-08T08:40:16.469Z,8.03
2023-01-08T08:41:16.651Z,8.06
2023-01-08T08:42:16.827Z,8.08
2023-01-08T08:43:16.991Z,8.11
2023-01-08T08:44:17.512Z,8.11
2023-01-08T08:45:17.365Z,8.14
2023-01-08T08:46:17.452Z,8.14
2023-01-08T08:47:17.606Z,8.11
2023-01-08T08:48:17.786Z,8.13
2023-01-08T08:49:17.931Z,8.13
2023-01-08T08:50:18.134Z,8.13
2023-01-08T08:51:18.210Z,8.14
2023-01-08T08:52:18.368Z,8.11
2023-01-08T08:53:18.524Z,8.09
2023-01-08T08:54:18.679Z,8.09
2023-01-08T08:55:18.809Z,8.11
2023-01-08T08:56:19.003Z,8.14
2023-01-08T08:57:19.046Z,8.13
2023-01-08T08:58:19.195Z,8.14
2023-01-08T08:59:19.359Z,8.14
2023-01-08T09:00:19.508Z,8.14
2023-01-08T09:01:19.781Z,8.17
2023-01-08T09:02:19.900Z,8.18
2023-01-08T09:03:19.941Z,8.21
2023-01-08T09:04:20.021Z,8.26
2023-01-08T09:05:20.198Z,8.24
2023-01-08T09:06:20.378Z,8.28
2023-01-08T09:07:20.516Z,8.31
2023-01-08T09:08:20.683Z,8.34
2023-01-08T09:09:20.897Z,8.35
2023-01-08T09:10:20.924Z,8.36
2023-01-08T09:11:22.073Z,8.39
2023-01-08T09:12:21.255Z,8.42
2023-01-08T09:13:21.416Z,8.44
2023-01-08T09:14:21.595Z,8.46
2023-01-08T09:15:21.746Z,8.49
2023-01-08T09:16:21.976Z,8.50
2023-01-08T09:17:22.036Z,8.52
2023-01-08T09:18:22.175Z,8.53
2023-01-08T09:19:22.429Z,8.56
2023-01-08T09:20:22.456Z,8.57
2023-01-08T09:21:22.656Z,8.59
2023-01-08T09:22:22.705Z,8.57
2023-01-08T09:23:22.846Z,8.57
2023-01-08T09:24:23.002Z,8.59
2023-01-08T09:25:23.299Z,8.56
2023-01-08T09:26:23.340Z,8.56
2023-01-08T09:27:23.522Z,8.54
2023-01-08T09:28:23.658Z,8.54
2023-01-08T09:29:23.799Z,8.56
2023-01-08T09:30:24.010Z,8.56
2023-01-08T09:31:24.099Z,8.56
2023-01-08T09:32:24.104Z,8.53
2023-01-08T09:33:24.250Z,8.53
2023-01-08T09:34:24.427Z,8.54
2023-01-08T09:35:24.571Z,8.54
2023-01-08T09:36:24.831Z,8.54
2023-01-08T09:37:24.867Z,8.56
2023-01-08T09:38:25.001Z,8.57
2023-01-08T09:39:25.156Z,8.57
2023-01-08T09:40:25.293Z,8.57
2023-01-08T09:41:25.579Z,8.59
2023-01-08T09:42:26.231Z,8.59
2023-01-08T09:43:25.708Z,8.63
2023-01-08T09:44:25.842Z,8.63
2023-01-08T09:45:28.765Z,8.61
2023-01-08T09:46:26.131Z,8.63
2023-01-08T09:47:33.182Z,8.61
2023-01-08T09:48:26.299Z,8.60
2023-01-08T09:49:26.387Z,8.60
2023-01-08T09:50:26.511Z,8.63
2023-01-08T09:51:26.722Z,8.63
2023-01-08T09:52:26.772Z,8.64
2023-01-08T09:53:26.833Z,8.68
2023-01-08T09:54:26.972Z,8.71
2023-01-08T09:55:27.160Z,8.69
2023-01-08T09:56:27.389Z,8.72
2023-01-08T09:57:27.460Z,8.72
2023-01-08T09:58:27.494Z,8.72
2023-01-08T09:59:27.625Z,8.75
2023-01-08T10:00:27.862Z,8.75
2023-01-08T10:01:28.021Z,8.74
2023-01-08T10:02:28.207Z,8.71
2023-01-08T10:03:28.040Z,8.69
2023-01-08T10:04:28.225Z,8.66
2023-01-08T10:05:28.409Z,8.68
2023-01-08T10:06:28.548Z,8.69
2023-01-08T10:07:28.689Z,8.66
2023-01-08T10:08:28.835Z,8.64
2023-01-08T10:09:29.011Z,8.66
2023-01-08T10:10:29.233Z,8.66
2023-01-08T10:11:29.311Z,8.66
2023-01-08T10:12:29.481Z,8.63
2023-01-08T10:13:29.636Z,8.61
2023-01-08T10:14:29.788Z,8.60
2023-01-08T10:15:29.924Z,8.59
2023-01-08T10:16:30.109Z,8.56
2023-01-08T10:17:30.240Z,8.56
2023-01-08T10:18:30.404Z,8.54
2023-01-08T10:19:30.518Z,8.52
2023-01-08T10:20:30.671Z,8.49
2023-01-08T10:21:30.837Z,8.49
2023-01-08T10:22:30.964Z,8.45
2023-01-08T10:23:31.100Z,8.45
2023-01-08T10:24:31.246Z,8.45
2023-01-08T10:25:31.384Z,8.45
2023-01-08T10:26:31.586Z,8.44
2023-01-08T10:27:31.600Z,8.41
2023-01-08T10:28:31.769Z,8.35
2023-01-08T10:29:31.916Z,8.35
2023-01-08T10:30:32.074Z,8.38
2023-01-08T10:31:32.293Z,8.35
2023-01-08T10:32:32.331Z,8.35
2023-01-08T10:33:32.522Z,8.32
2023-01-08T10:34:32.560Z,8.34
2023-01-08T10:35:32.694Z,8.32
2023-01-08T10:36:32.882Z,8.32
2023-01-08T10:37:32.911Z,8.35
2023-01-08T10:38:33.872Z,8.34
2023-01-08T10:39:33.212Z,8.31
2023-01-08T10:40:33.400Z,8.32
2023-01-08T10:41:33.589Z,8.34
2023-01-08T10:42:33.631Z,8.31
2023-01-08T10:43:33.816Z,8.31
2023-01-08T10:44:33.925Z,8.32
2023-01-08T10:45:34.055Z,8.35
2023-01-08T10:46:34.120Z,8.34
2023-01-08T10:47:34.207Z,8.32
2023-01-08T10:48:34.268Z,8.32
2023-01-08T10:49:34.433Z,8.38
2023-01-08T10:50:34.596Z,8.36
2023-01-08T10:51:34.776Z,8.42
2023-01-08T10:52:34.943Z,8.38
2023-01-08T10:53:35.087Z,8.39
2023-01-08T10:54:35.303Z,8.38
2023-01-08T10:55:35.333Z,8.34
2023-01-08T10:56:35.520Z,8.32
2023-01-08T10:57:35.617Z,8.32
2023-01-08T10:58:35.791Z,8.32
2023-01-08T10:59:35.950Z,8.32
2023-01-08T11:00:36.165Z,8.32
2023-01-08T11:01:36.271Z,8.35
2023-01-08T11:02:38.636Z,8.36
2023-01-08T11:03:36.410Z,8.38
2023-01-08T11:04:36.535Z,8.41
2023-01-08T11:05:36.682Z,8.41
2023-01-08T11:06:36.842Z,8.41
2023-01-08T11:07:37.003Z,8.42
2023-01-08T11:08:37.170Z,8.44
2023-01-08T11:09:37.307Z,8.46
2023-01-08T11:10:37.440Z,8.50
2023-01-08T11:11:37.580Z,8.53
2023-01-08T11:12:37.710Z,8.57
2023-01-08T11:13:37.843Z,8.72
2023-01-08T11:14:38.002Z,8.78
2023-01-08T11:15:38.136Z,8.81
2023-01-08T11:16:38.351Z,8.75
2023-01-08T11:17:38.380Z,8.75
2023-01-08T11:18:38.531Z,8.75
2023-01-08T11:19:38.671Z,8.74
2023-01-08T11:20:38.798Z,8.72
2023-01-08T11:21:38.945Z,8.75
2023-01-08T11:22:39.089Z,8.69
2023-01-08T11:23:39.218Z,8.71
2023-01-08T11:24:39.433Z,8.71
2023-01-08T11:25:39.452Z,8.68
2023-01-08T11:26:39.626Z,8.69
2023-01-08T11:27:39.767Z,8.74
2023-01-08T11:28:39.978Z,8.69
2023-01-08T11:29:40.023Z,8.69
2023-01-08T11:30:40.314Z,8.69
2023-01-08T11:31:40.478Z,8.74
2023-01-08T11:32:40.524Z,8.75
2023-01-08T11:33:40.679Z,8.79
2023-01-08T11:34:40.811Z,8.82
2023-01-08T11:35:40.968Z,8.79
2023-01-08T11:36:41.107Z,8.78
2023-01-08T11:37:41.295Z,8.71
2023-01-08T11:38:41.453Z,8.75
2023-01-08T11:39:41.610Z,8.72
2023-01-08T11:40:41.778Z,8.72
2023-01-08T11:41:41.935Z,8.74
2023-01-08T11:42:42.117Z,8.74
2023-01-08T11:43:42.248Z,8.75
2023-01-08T11:44:42.443Z,8.74
2023-01-08T11:45:42.492Z,8.77
2023-01-08T11:46:42.649Z,8.75
2023-01-08T11:47:42.959Z,8.77
2023-01-08T11:48:42.887Z,8.77
2023-01-08T11:49:43.018Z,8.81
2023-01-08T11:50:43.164Z,8.87
2023-01-08T11:51:43.300Z,8.90
2023-01-08T11:52:43.488Z,8.90
2023-01-08T11:53:43.614Z,8.95
2023-01-08T11:54:43.765Z,8.95
2023-01-08T11:55:43.884Z,8.96
2023-01-08T11:56:44.063Z,8.97
2023-01-08T11:57:44.100Z,8.97
2023-01-08T11:58:44.311Z,8.97
2023-01-08T11:59:44.355Z,8.99
2023-01-08T12:00:44.480Z,8.99
2023-01-08T12:01:44.765Z,9.00
2023-01-08T12:02:44.748Z,8.99
2023-01-08T12:03:44.876Z,9.03
2023-01-08T12:04:45.057Z,9.05
2023-01-08T12:05:46.129Z,9.08
2023-01-08T12:06:45.367Z,9.03
2023-01-08T12:07:45.413Z,9.03
2023-01-08T12:08:45.618Z,9.02
2023-01-08T12:09:45.672Z,9.00
2023-01-08T12:10:45.824Z,9.00
2023-01-08T12:11:46.039Z,9.03
2023-01-08T12:12:46.126Z,9.05
2023-01-08T12:13:46.158Z,9.08
2023-01-08T12:14:46.319Z,9.12
2023-01-08T12:15:46.465Z,9.13
2023-01-08T12:16:46.763Z,9.16
2023-01-08T12:17:46.794Z,9.15
2023-01-08T12:18:46.948Z,9.12
2023-01-08T12:19:47.084Z,9.16
2023-01-08T12:20:47.213Z,9.18
2023-01-08T12:21:47.401Z,9.15
2023-01-08T12:22:47.435Z,9.16
2023-01-08T12:23:47.611Z,9.16
2023-01-08T12:24:47.764Z,9.18
2023-01-08T12:25:47.913Z,9.19
2023-01-08T12:26:48.073Z,9.24
2023-01-08T12:27:56.849Z,9.29
2023-01-08T12:28:49.285Z,9.30
2023-01-08T12:29:48.440Z,9.27
2023-01-08T12:30:48.592Z,9.26
2023-01-08T12:32:01.545Z,9.30
2023-01-08T12:32:49.839Z,9.31
2023-01-08T12:33:48.975Z,9.31
2023-01-08T12:34:49.104Z,9.31
2023-01-08T12:35:49.233Z,9.34
2023-01-08T12:36:49.427Z,9.36
2023-01-08T12:37:51.764Z,9.33
2023-01-08T12:38:49.532Z,9.27
2023-01-08T12:39:49.644Z,9.26
2023-01-08T12:40:49.778Z,9.26
2023-01-08T12:41:49.926Z,9.27
2023-01-08T12:42:59.913Z,9.27
2023-01-08T12:43:51.140Z,9.26
2023-01-08T12:44:50.263Z,9.24
2023-01-08T12:45:50.448Z,9.24
2023-01-08T12:46:50.561Z,9.27
2023-01-08T12:47:50.717Z,9.27
2023-01-08T12:48:51.884Z,9.31
2023-01-08T12:49:51.019Z,9.30
2023-01-08T12:50:51.062Z,9.29
2023-01-08T12:51:51.218Z,9.30
2023-01-08T12:52:51.329Z,9.30
2023-01-08T12:53:51.473Z,9.29
2023-01-08T12:54:51.595Z,9.27
2023-01-08T12:55:51.760Z,9.30
2023-01-08T12:56:51.884Z,9.29
2023-01-08T12:57:52.019Z,9.30
2023-01-08T12:58:52.154Z,9.30
2023-01-08T12:59:52.299Z,9.30
2023-01-08T13:00:52.529Z,9.29
2023-01-08T13:01:52.763Z,9.27
2023-01-08T13:02:52.752Z,9.26
2023-01-08T13:03:52.754Z,9.27
2023-01-08T13:04:52.910Z,9.26
2023-01-08T13:05:53.059Z,9.27
2023-01-08T13:06:53.245Z,9.24
2023-01-08T13:07:53.345Z,9.26
2023-01-08T13:08:53.532Z,9.24
2023-01-08T13:09:53.571Z,9.26
2023-01-08T13:10:53.685Z,9.26
2023-01-08T13:11:53.857Z,9.26
2023-01-08T13:12:53.996Z,9.26
2023-01-08T13:13:54.134Z,9.24
2023-01-08T13:14:54.268Z,9.24
2023-01-08T13:15:54.389Z,9.24
2023-01-08T13:16:54.567Z,9.22
2023-01-08T13:17:54.729Z,9.22
2023-01-08T13:18:54.755Z,9.22
2023-01-08T13:19:54.918Z,9.19